createdAt,value
2018-07-12T00:00:19.135Z,0.00
2018-07-12T00:01:18.361Z,0.00
2018-07-12T00:02:18.525Z,0.00
2018-07-12T00:03:18.697Z,0.00
2018-07-12T00:04:18.861Z,0.00
2018-07-12T00:05:19.028Z,0.00
2018-07-12T00:06:19.197Z,0.00
2018-07-12T00:07:19.367Z,0.00
2018-07-12T00:08:19.544Z,0.00
2018-07-12T00:09:19.915Z,0.00
2018-07-12T00:10:19.863Z,0.00
2018-07-12T00:11:20.032Z,0.00
2018-07-12T00:12:20.198Z,0.00
2018-07-12T00:13:20.366Z,0.00
2018-07-12T00:14:20.544Z,0.00
2018-07-12T00:15:20.709Z,0.00
2018-07-12T00:16:20.881Z,0.00
2018-07-12T00:17:21.047Z,0.00
2018-07-12T00:18:21.218Z,0.00
2018-07-12T00:19:21.384Z,0.00
2018-07-12T00:20:22.128Z,0.00
2018-07-12T00:21:21.756Z,0.00
2018-07-12T00:22:21.891Z,0.00
2018-07-12T00:23:22.062Z,0.00
2018-07-12T00:24:22.242Z,0.00
2018-07-12T00:25:22.385Z,0.00
2018-07-12T00:26:22.595Z,0.00
2018-07-12T00:27:22.725Z,0.00
2018-07-12T00:28:22.899Z,0.00
2018-07-12T00:29:23.065Z,0.00
2018-07-12T00:30:23.265Z,0.00
2018-07-12T00:31:23.418Z,0.00
2018-07-12T00:32:23.589Z,0.00
2018-07-12T00:33:23.755Z,0.00
2018-07-12T00:34:23.947Z,0.00
2018-07-12T00:35:24.110Z,0.00
2018-07-12T00:36:24.277Z,0.00
2018-07-12T00:37:24.448Z,0.00
2018-07-12T00:38:24.623Z,0.00
2018-07-12T00:39:24.785Z,0.00
2018-07-12T00:40:24.952Z,0.00
2018-07-12T00:41:25.119Z,0.00
2018-07-12T00:42:25.296Z,0.00
2018-07-12T00:43:25.464Z,0.00
2018-07-12T00:44:25.644Z,0.00
2018-07-12T00:45:25.810Z,0.00
2018-07-12T00:46:25.974Z,0.00
2018-07-12T00:47:26.143Z,0.00
2018-07-12T00:48:26.322Z,0.00
2018-07-12T00:49:26.486Z,0.00
2018-07-12T00:50:26.649Z,0.00
2018-07-12T00:51:26.824Z,0.00
2018-07-12T00:52:27.017Z,0.00
2018-07-12T00:53:27.162Z,0.00
2018-07-12T00:54:27.356Z,0.00
2018-07-12T00:55:27.491Z,0.00
2018-07-12T00:56:27.653Z,0.00
2018-07-12T00:57:27.824Z,0.00
2018-07-12T00:58:28.113Z,0.00
2018-07-12T00:59:28.163Z,0.00
2018-07-12T01:00:28.332Z,0.00
2018-07-12T01:01:28.504Z,0.00
2018-07-12T01:02:28.678Z,0.00
2018-07-12T01:03:29.122Z,0.00
2018-07-12T01:04:29.023Z,0.00
2018-07-12T01:05:29.192Z,0.00
2018-07-12T01:06:29.363Z,0.00
2018-07-12T01:07:29.543Z,0.00
2018-07-12T01:08:29.713Z,0.00
2018-07-12T01:09:29.885Z,0.00
2018-07-12T01:10:30.058Z,0.00
2018-07-12T01:11:30.253Z,0.00
2018-07-12T01:12:30.442Z,0.00
2018-07-12T01:13:30.561Z,0.00
2018-07-12T01:14:30.852Z,0.00
2018-07-12T01:15:30.919Z,0.00
2018-07-12T01:16:31.091Z,0.00
2018-07-12T01:17:31.255Z,0.00
2018-07-12T01:18:31.442Z,0.00
2018-07-12T01:19:32.148Z,0.00
2018-07-12T01:20:31.815Z,0.00
2018-07-12T01:21:31.920Z,0.00
2018-07-12T01:22:32.107Z,0.00
2018-07-12T01:23:32.308Z,0.00
2018-07-12T01:24:32.477Z,0.00
2018-07-12T01:25:32.641Z,0.00
2018-07-12T01:26:32.806Z,0.00
2018-07-12T01:27:32.977Z,0.00
2018-07-12T01:28:33.647Z,0.00
2018-07-12T01:29:33.300Z,0.00
2018-07-12T01:30:33.474Z,0.00
2018-07-12T01:31:33.678Z,0.00
2018-07-12T01:32:33.810Z,0.00
2018-07-12T01:33:33.979Z,0.00
2018-07-12T01:34:34.150Z,0.00
2018-07-12T01:35:34.316Z,0.00
2018-07-12T01:36:34.482Z,0.00
2018-07-12T01:37:34.651Z,0.00
2018-07-12T01:38:34.817Z,0.00
2018-07-12T01:39:34.988Z,0.00
2018-07-12T01:40:35.162Z,0.00
2018-07-12T01:41:35.332Z,0.00
2018-07-12T01:42:35.493Z,0.00
2018-07-12T01:43:35.664Z,0.00
2018-07-12T01:44:35.832Z,0.00
2018-07-12T01:45:36.004Z,0.00
2018-07-12T01:46:36.181Z,0.00
2018-07-12T01:47:36.347Z,0.00
2018-07-12T01:48:36.518Z,0.00
2018-07-12T01:49:36.685Z,0.00
2018-07-12T01:50:36.851Z,0.00
2018-07-12T01:51:37.020Z,0.00
2018-07-12T01:52:37.190Z,0.00
2018-07-12T01:53:37.365Z,0.00
2018-07-12T01:54:37.537Z,0.00
2018-07-12T01:55:37.746Z,0.00
2018-07-12T01:56:37.867Z,0.00
2018-07-12T01:57:38.127Z,0.00
2018-07-12T01:58:38.196Z,0.00
2018-07-12T01:59:38.363Z,0.00
2018-07-12T02:00:38.636Z,0.00
2018-07-12T02:01:38.694Z,0.00
2018-07-12T02:02:38.987Z,0.00
2018-07-12T02:03:39.066Z,0.00
2018-07-12T02:04:39.238Z,0.00
2018-07-12T02:05:39.398Z,0.00
2018-07-12T02:06:39.565Z,0.00
2018-07-12T02:07:39.785Z,0.00
2018-07-12T02:08:39.857Z,0.00
2018-07-12T02:09:40.119Z,0.00
2018-07-12T02:10:40.197Z,0.00
2018-07-12T02:11:40.546Z,0.00
2018-07-12T02:12:40.555Z,0.00
2018-07-12T02:13:40.725Z,0.00
2018-07-12T02:14:40.895Z,0.00
2018-07-12T02:15:41.064Z,0.00
2018-07-12T02:16:41.226Z,0.00
2018-07-12T02:17:41.399Z,0.00
2018-07-12T02:18:41.560Z,0.00
2018-07-12T02:19:41.733Z,0.00
2018-07-12T02:20:41.904Z,0.00
2018-07-12T02:21:42.321Z,0.00
2018-07-12T02:22:42.362Z,0.00
2018-07-12T02:23:42.449Z,0.00
2018-07-12T02:24:42.620Z,0.00
2018-07-12T02:25:42.824Z,0.00
2018-07-12T02:26:42.964Z,0.00
2018-07-12T02:27:43.270Z,0.00
2018-07-12T02:28:43.289Z,0.00
2018-07-12T02:29:43.457Z,0.00
2018-07-12T02:30:43.634Z,0.00
2018-07-12T02:31:43.799Z,0.00
2018-07-12T02:32:43.970Z,0.00
2018-07-12T02:33:44.137Z,0.00
2018-07-12T02:34:44.302Z,0.00
2018-07-12T02:35:44.473Z,0.00
2018-07-12T02:36:44.641Z,0.00
2018-07-12T02:37:44.807Z,0.00
2018-07-12T02:38:45.003Z,0.00
2018-07-12T02:39:45.172Z,0.00
2018-07-12T02:40:45.342Z,0.00
2018-07-12T02:41:45.510Z,0.00
2018-07-12T02:42:45.674Z,0.00
2018-07-12T02:43:45.845Z,0.00
2018-07-12T02:44:46.124Z,0.00
2018-07-12T02:45:46.239Z,0.00
2018-07-12T02:46:46.410Z,0.00
2018-07-12T02:47:46.598Z,4.00
2018-07-12T02:48:46.879Z,4.00
2018-07-12T02:49:46.905Z,0.00
2018-07-12T02:50:47.077Z,4.00
2018-07-12T02:51:47.247Z,4.00
2018-07-12T02:52:47.414Z,4.00
2018-07-12T02:53:47.588Z,8.00
2018-07-12T02:54:47.750Z,4.00
2018-07-12T02:55:47.916Z,8.00
2018-07-12T02:56:48.090Z,8.00
2018-07-12T02:57:48.256Z,8.00
2018-07-12T02:58:48.428Z,8.00
2018-07-12T02:59:48.589Z,8.00
2018-07-12T03:00:48.758Z,12.00
2018-07-12T03:01:48.924Z,12.00
2018-07-12T03:02:49.098Z,12.00
2018-07-12T03:03:49.267Z,16.00
2018-07-12T03:04:49.438Z,16.00
2018-07-12T03:05:49.601Z,16.00
2018-07-12T03:06:49.771Z,20.00
2018-07-12T03:07:49.946Z,20.00
2018-07-12T03:08:50.118Z,24.00
2018-07-12T03:09:50.286Z,24.00
2018-07-12T03:10:50.453Z,28.00
2018-07-12T03:11:50.615Z,32.00
2018-07-12T03:12:50.786Z,32.00
2018-07-12T03:13:50.948Z,36.00
2018-07-12T03:14:51.119Z,36.00
2018-07-12T03:15:51.293Z,44.00
2018-07-12T03:16:51.463Z,48.00
2018-07-12T03:17:51.632Z,52.00
2018-07-12T03:18:51.798Z,56.00
2018-07-12T03:19:51.967Z,60.00
2018-07-12T03:20:52.137Z,64.00
2018-07-12T03:21:52.313Z,64.00
2018-07-12T03:22:52.475Z,64.00
2018-07-12T03:23:52.646Z,72.00
2018-07-12T03:24:52.818Z,80.00
2018-07-12T03:25:52.984Z,80.00
2018-07-12T03:26:53.161Z,84.00
2018-07-12T03:27:53.329Z,84.00
2018-07-12T03:28:53.500Z,92.00
2018-07-12T03:29:53.662Z,100.00
2018-07-12T03:30:53.826Z,104.00
2018-07-12T03:31:53.997Z,108.00
2018-07-12T03:32:54.164Z,120.00
2018-07-12T03:33:54.335Z,132.00
2018-07-12T03:34:54.500Z,144.00
2018-07-12T03:35:54.669Z,156.00
2018-07-12T03:36:54.836Z,160.00
2018-07-12T03:37:55.006Z,168.00
2018-07-12T03:38:55.176Z,172.00
2018-07-12T03:39:55.354Z,184.00
2018-07-12T03:40:55.515Z,196.00
2018-07-12T03:41:55.675Z,188.00
2018-07-12T03:42:55.845Z,184.00
2018-07-12T03:43:56.013Z,188.00
2018-07-12T03:44:56.185Z,188.00
2018-07-12T03:45:56.354Z,204.00
2018-07-12T03:46:56.519Z,212.00
2018-07-12T03:47:56.686Z,220.00
2018-07-12T03:48:56.858Z,232.00
2018-07-12T03:49:57.026Z,244.00
2018-07-12T03:50:57.191Z,264.00
2018-07-12T03:51:57.363Z,284.00
2018-07-12T03:52:57.530Z,300.00
2018-07-12T03:53:57.724Z,332.00
2018-07-12T03:54:57.897Z,348.00
2018-07-12T03:55:58.070Z,384.00
2018-07-12T03:56:58.239Z,408.00
2018-07-12T03:57:58.411Z,396.00
2018-07-12T03:58:58.570Z,384.00
2018-07-12T03:59:58.738Z,396.00
2018-07-12T04:00:58.909Z,412.00
2018-07-12T04:01:59.077Z,436.00
2018-07-12T04:02:59.246Z,460.00
2018-07-12T04:03:59.415Z,492.00
2018-07-12T04:04:59.590Z,532.00
2018-07-12T04:05:59.756Z,592.00
2018-07-12T04:06:59.922Z,648.00
2018-07-12T04:08:00.097Z,692.00
2018-07-12T04:09:00.263Z,724.00
2018-07-12T04:10:00.431Z,732.00
2018-07-12T04:11:00.614Z,724.00
2018-07-12T04:12:00.770Z,740.00
2018-07-12T04:13:00.936Z,796.00
2018-07-12T04:14:01.105Z,888.00
2018-07-12T04:15:01.278Z,936.00
2018-07-12T04:16:01.448Z,928.00
2018-07-12T04:17:01.615Z,912.00
2018-07-12T04:18:01.796Z,960.00
2018-07-12T04:19:01.968Z,1012.00
2018-07-12T04:20:02.139Z,1084.00
2018-07-12T04:21:02.308Z,1152.00
2018-07-12T04:22:02.476Z,1212.00
2018-07-12T04:23:02.651Z,1256.00
2018-07-12T04:24:02.820Z,1288.00
2018-07-12T04:25:02.992Z,1324.00
2018-07-12T04:26:03.155Z,1368.00
2018-07-12T04:27:03.317Z,1436.00
2018-07-12T04:28:03.488Z,1556.00
2018-07-12T04:29:03.653Z,1692.00
2018-07-12T04:30:03.831Z,1616.00
2018-07-12T04:31:03.999Z,1480.00
2018-07-12T04:32:04.169Z,1444.00
2018-07-12T04:33:04.340Z,1660.00
2018-07-12T04:34:04.503Z,1660.00
2018-07-12T04:35:04.671Z,1628.00
2018-07-12T04:36:04.838Z,1480.00
2018-07-12T04:37:05.011Z,1392.00
2018-07-12T04:38:05.179Z,1328.00
2018-07-12T04:39:05.346Z,1108.00
2018-07-12T04:40:05.514Z,860.00
2018-07-12T04:41:05.685Z,760.00
2018-07-12T04:42:05.848Z,812.00
2018-07-12T04:43:06.013Z,916.00
2018-07-12T04:44:06.189Z,992.00
2018-07-12T04:45:06.357Z,1136.00
2018-07-12T04:46:06.526Z,1148.00
2018-07-12T04:47:06.696Z,1240.00
2018-07-12T04:48:06.872Z,1288.00
2018-07-12T04:49:07.035Z,1292.00
2018-07-12T04:50:07.204Z,1408.00
2018-07-12T04:51:07.376Z,1540.00
2018-07-12T04:52:07.536Z,1620.00
2018-07-12T04:53:07.702Z,1636.00
2018-07-12T04:54:07.869Z,1576.00
2018-07-12T04:55:08.037Z,1448.00
2018-07-12T04:56:08.207Z,1232.00
2018-07-12T04:57:08.377Z,1188.00
2018-07-12T04:58:08.573Z,1224.00
2018-07-12T04:59:08.728Z,1256.00
2018-07-12T05:00:08.910Z,1476.00
2018-07-12T05:01:09.077Z,1820.00
2018-07-12T05:02:09.255Z,1960.00
2018-07-12T05:03:09.420Z,2068.00
2018-07-12T05:04:09.593Z,2124.00
2018-07-12T05:05:09.766Z,2144.00
2018-07-12T05:06:09.940Z,2264.00
2018-07-12T05:07:10.107Z,2352.00
2018-07-12T05:08:10.320Z,2564.00
2018-07-12T05:09:10.453Z,2664.00
2018-07-12T05:10:10.618Z,2740.00
2018-07-12T05:11:10.784Z,2800.00
2018-07-12T05:12:10.953Z,2856.00
2018-07-12T05:13:11.124Z,2876.00
2018-07-12T05:14:11.291Z,2952.00
2018-07-12T05:15:11.456Z,3004.00
2018-07-12T05:16:11.651Z,3040.00
2018-07-12T05:17:11.795Z,3092.00
2018-07-12T05:18:11.968Z,3172.00
2018-07-12T05:19:12.132Z,3408.00
2018-07-12T05:20:12.304Z,3516.00
2018-07-12T05:21:12.487Z,3624.00
2018-07-12T05:22:12.669Z,3572.00
2018-07-12T05:23:12.837Z,3640.00
2018-07-12T05:24:13.017Z,3400.00
2018-07-12T05:25:13.178Z,3648.00
2018-07-12T05:26:13.342Z,3672.00
2018-07-12T05:27:13.512Z,3724.00
2018-07-12T05:28:13.684Z,3604.00
2018-07-12T05:29:13.850Z,3704.00
2018-07-12T05:30:14.021Z,3732.00
2018-07-12T05:31:14.189Z,3904.00
2018-07-12T05:32:14.359Z,4276.00
2018-07-12T05:33:14.529Z,4548.00
2018-07-12T05:34:14.704Z,4596.00
2018-07-12T05:35:14.873Z,4792.00
2018-07-12T05:36:15.039Z,5016.00
2018-07-12T05:37:15.212Z,5244.00
2018-07-12T05:38:15.379Z,5440.00
2018-07-12T05:39:15.557Z,4980.00
2018-07-12T05:40:15.713Z,4620.00
2018-07-12T05:41:15.885Z,4568.00
2018-07-12T05:42:16.060Z,4664.00
2018-07-12T05:43:16.226Z,4360.00
2018-07-12T05:44:16.395Z,3960.00
2018-07-12T05:45:16.568Z,3444.00
2018-07-12T05:46:16.731Z,3316.00
2018-07-12T05:47:16.912Z,3680.00
2018-07-12T05:48:17.089Z,3868.00
2018-07-12T05:49:17.254Z,3900.00
2018-07-12T05:50:17.429Z,4148.00
2018-07-12T05:51:17.606Z,4828.00
2018-07-12T05:52:17.776Z,5104.00
2018-07-12T05:53:17.941Z,5084.00
2018-07-12T05:54:18.108Z,5532.00
2018-07-12T05:55:18.279Z,6236.00
2018-07-12T05:56:18.447Z,6260.00
2018-07-12T05:57:18.620Z,5852.00
2018-07-12T05:58:18.785Z,5668.00
2018-07-12T05:59:18.963Z,5500.00
2018-07-12T06:00:19.128Z,5548.00
2018-07-12T06:01:19.291Z,5556.00
2018-07-12T06:02:19.464Z,5064.00
2018-07-12T06:03:19.630Z,4968.00
2018-07-12T06:04:19.797Z,5476.00
2018-07-12T06:05:19.970Z,5520.00
2018-07-12T06:06:20.139Z,4756.00
2018-07-12T06:07:20.304Z,3972.00
2018-07-12T06:08:20.473Z,3688.00
2018-07-12T06:09:20.642Z,4168.00
2018-07-12T06:10:20.811Z,4832.00
2018-07-12T06:11:20.983Z,5032.00
2018-07-12T06:12:21.149Z,5020.00
2018-07-12T06:13:21.427Z,4760.00
2018-07-12T06:14:21.498Z,4496.00
2018-07-12T06:15:21.667Z,4884.00
2018-07-12T06:16:21.841Z,5536.00
2018-07-12T06:17:22.012Z,6172.00
2018-07-12T06:18:22.180Z,5764.00
2018-07-12T06:19:22.345Z,5396.00
2018-07-12T06:20:22.518Z,5972.00
2018-07-12T06:21:22.690Z,6616.00
2018-07-12T06:22:22.857Z,6140.00
2018-07-12T06:23:23.030Z,6908.00
2018-07-12T06:24:23.205Z,6432.00
2018-07-12T06:25:23.374Z,6484.00
2018-07-12T06:26:23.556Z,6388.00
2018-07-12T06:27:23.730Z,5796.00
2018-07-12T06:28:23.905Z,5260.00
2018-07-12T06:29:24.069Z,4944.00
2018-07-12T06:30:24.238Z,4912.00
2018-07-12T06:31:24.416Z,4720.00
2018-07-12T06:32:25.219Z,4716.00
2018-07-12T06:33:25.199Z,4988.00
2018-07-12T06:34:25.398Z,4968.00
2018-07-12T06:35:25.608Z,5004.00
2018-07-12T06:36:25.837Z,4772.00
2018-07-12T06:37:25.993Z,4712.00
2018-07-12T06:38:26.254Z,4912.00
2018-07-12T06:39:26.337Z,5656.00
2018-07-12T06:40:26.552Z,5336.00
2018-07-12T06:41:26.752Z,5532.00
2018-07-12T06:42:26.937Z,6252.00
2018-07-12T06:43:26.735Z,7360.00
2018-07-12T06:44:26.902Z,8504.00
2018-07-12T06:45:27.070Z,8484.00
2018-07-12T06:46:27.240Z,8344.00
2018-07-12T06:47:27.408Z,7504.00
2018-07-12T06:48:27.582Z,7096.00
2018-07-12T06:49:27.745Z,7152.00
2018-07-12T06:50:27.918Z,7140.00
2018-07-12T06:51:28.101Z,7428.00
2018-07-12T06:52:28.265Z,7504.00
2018-07-12T06:53:28.430Z,7592.00
2018-07-12T06:54:28.604Z,7924.00
2018-07-12T06:55:28.779Z,8364.00
2018-07-12T06:56:28.959Z,8668.00
2018-07-12T06:57:29.136Z,8192.00
2018-07-12T06:58:29.311Z,7864.00
2018-07-12T06:59:29.478Z,8916.00
2018-07-12T07:00:29.674Z,8912.00
2018-07-12T07:01:29.819Z,8760.00
2018-07-12T07:02:30.166Z,8948.00
2018-07-12T07:03:30.106Z,8472.00
2018-07-12T07:04:30.272Z,7276.00
2018-07-12T07:05:30.446Z,7040.00
2018-07-12T07:06:30.615Z,7936.00
2018-07-12T07:07:30.780Z,9044.00
2018-07-12T07:08:30.952Z,10256.00
2018-07-12T07:09:31.118Z,11000.00
2018-07-12T07:10:31.287Z,9600.00
2018-07-12T07:11:31.461Z,7980.00
2018-07-12T07:12:31.629Z,8028.00
2018-07-12T07:13:31.809Z,8204.00
2018-07-12T07:14:31.975Z,7676.00
2018-07-12T07:15:32.143Z,7684.00
2018-07-12T07:16:32.357Z,7904.00
2018-07-12T07:17:32.488Z,8088.00
2018-07-12T07:18:32.660Z,9584.00
2018-07-12T07:19:32.825Z,11524.00
2018-07-12T07:20:32.999Z,12812.00
2018-07-12T07:21:33.174Z,11092.00
2018-07-12T07:22:33.350Z,10656.00
2018-07-12T07:23:33.537Z,9480.00
2018-07-12T07:24:33.704Z,8656.00
2018-07-12T07:25:33.883Z,8376.00
2018-07-12T07:26:34.050Z,8660.00
2018-07-12T07:27:34.219Z,9108.00
2018-07-12T07:28:34.393Z,10300.00
2018-07-12T07:29:34.561Z,11900.00
2018-07-12T07:30:34.735Z,12376.00
2018-07-12T07:31:34.909Z,11948.00
2018-07-12T07:32:35.075Z,10960.00
2018-07-12T07:33:35.262Z,10892.00
2018-07-12T07:34:35.431Z,9704.00
2018-07-12T07:35:35.648Z,9120.00
2018-07-12T07:36:35.767Z,8544.00
2018-07-12T07:37:35.940Z,8328.00
2018-07-12T07:38:36.114Z,8492.00
2018-07-12T07:39:36.310Z,8600.00
2018-07-12T07:40:36.458Z,8800.00
2018-07-12T07:41:36.631Z,8884.00
2018-07-12T07:42:36.803Z,9856.00
2018-07-12T07:43:36.997Z,10064.00
2018-07-12T07:44:37.145Z,9972.00
2018-07-12T07:45:37.313Z,9548.00
2018-07-12T07:46:37.487Z,9900.00
2018-07-12T07:47:37.661Z,10864.00
2018-07-12T07:48:37.841Z,10872.00
2018-07-12T07:49:38.009Z,10212.00
2018-07-12T07:50:38.179Z,9680.00
2018-07-12T07:51:38.350Z,8892.00
2018-07-12T07:52:38.526Z,8148.00
2018-07-12T07:53:38.697Z,7588.00
2018-07-12T07:54:38.868Z,7900.00
2018-07-12T07:55:39.042Z,9200.00
2018-07-12T07:56:39.208Z,10780.00
2018-07-12T07:57:39.378Z,11656.00
2018-07-12T07:58:39.549Z,12028.00
2018-07-12T07:59:39.722Z,11256.00
2018-07-12T08:00:39.894Z,10076.00
2018-07-12T08:01:40.071Z,9344.00
2018-07-12T08:02:40.242Z,9024.00
2018-07-12T08:03:40.421Z,8972.00
2018-07-12T08:04:40.601Z,9300.00
2018-07-12T08:05:40.772Z,10224.00
2018-07-12T08:06:40.948Z,11780.00
2018-07-12T08:07:41.126Z,12480.00
2018-07-12T08:08:41.300Z,11532.00
2018-07-12T08:09:41.476Z,10172.00
2018-07-12T08:10:41.640Z,8844.00
2018-07-12T08:11:41.817Z,7816.00
2018-07-12T08:12:41.993Z,7664.00
2018-07-12T08:13:42.160Z,8084.00
2018-07-12T08:14:42.338Z,8304.00
2018-07-12T08:15:42.512Z,8356.00
2018-07-12T08:16:42.687Z,8208.00
2018-07-12T08:17:42.857Z,7700.00
2018-07-12T08:18:43.043Z,6984.00
2018-07-12T08:19:43.206Z,6516.00
2018-07-12T08:20:43.388Z,6312.00
2018-07-12T08:21:43.551Z,6396.00
2018-07-12T08:22:43.724Z,6572.00
2018-07-12T08:23:43.897Z,6356.00
2018-07-12T08:24:44.071Z,5728.00
2018-07-12T08:25:44.248Z,5232.00
2018-07-12T08:26:44.420Z,4776.00
2018-07-12T08:27:44.592Z,4704.00
2018-07-12T08:28:44.776Z,4836.00
2018-07-12T08:29:44.938Z,4936.00
2018-07-12T08:30:45.119Z,4840.00
2018-07-12T08:31:45.286Z,4996.00
2018-07-12T08:32:45.462Z,5192.00
2018-07-12T08:33:45.630Z,5748.00
2018-07-12T08:34:46.738Z,6924.00
2018-07-12T08:35:45.967Z,7988.00
2018-07-12T08:36:46.744Z,8412.00
2018-07-12T08:37:46.310Z,8520.00
2018-07-12T08:38:47.238Z,8648.00
2018-07-12T08:39:46.657Z,8572.00
2018-07-12T08:40:46.820Z,8672.00
2018-07-12T08:41:46.995Z,8756.00
2018-07-12T08:42:47.176Z,8548.00
2018-07-12T08:43:47.327Z,8168.00
2018-07-12T08:44:47.520Z,8424.00
2018-07-12T08:45:47.692Z,9444.00
2018-07-12T08:46:47.868Z,10188.00
2018-07-12T08:47:48.049Z,10716.00
2018-07-12T08:48:48.230Z,11408.00
2018-07-12T08:49:48.420Z,11332.00
2018-07-12T08:50:48.594Z,10052.00
2018-07-12T08:51:48.767Z,9276.00
2018-07-12T08:52:48.941Z,9224.00
2018-07-12T08:53:49.106Z,9636.00
2018-07-12T08:54:49.281Z,10012.00
2018-07-12T08:55:49.480Z,9984.00
2018-07-12T08:56:49.619Z,10068.00
2018-07-12T08:57:49.790Z,10588.00
2018-07-12T08:58:49.961Z,11300.00
2018-07-12T08:59:50.136Z,12232.00
2018-07-12T09:00:50.306Z,12248.00
2018-07-12T09:01:50.485Z,11364.00
2018-07-12T09:02:50.697Z,10452.00
2018-07-12T09:03:50.828Z,9756.00
2018-07-12T09:04:51.008Z,9424.00
2018-07-12T09:05:51.187Z,9048.00
2018-07-12T09:06:51.367Z,8996.00
2018-07-12T09:07:51.543Z,8768.00
2018-07-12T09:08:51.712Z,8656.00
2018-07-12T09:09:51.893Z,8132.00
2018-07-12T09:10:52.766Z,7580.00
2018-07-12T09:11:52.205Z,7008.00
2018-07-12T09:12:52.379Z,6608.00
2018-07-12T09:13:52.555Z,6708.00
2018-07-12T09:14:52.721Z,7564.00
2018-07-12T09:15:52.890Z,8484.00
2018-07-12T09:16:53.065Z,8392.00
2018-07-12T09:17:53.236Z,8428.00
2018-07-12T09:18:53.416Z,8984.00
2018-07-12T09:19:53.749Z,9624.00
2018-07-12T09:20:53.784Z,13132.00
2018-07-12T09:21:53.957Z,15412.00
2018-07-12T09:22:54.124Z,16992.00
2018-07-12T09:23:54.454Z,24640.00
2018-07-12T09:24:54.853Z,16736.00
2018-07-12T09:25:54.986Z,16104.00
2018-07-12T09:26:54.991Z,15988.00
2018-07-12T09:27:55.182Z,15968.00
2018-07-12T09:28:55.496Z,15236.00
2018-07-12T09:29:55.556Z,19680.00
2018-07-12T09:30:55.916Z,23488.00
2018-07-12T09:31:55.895Z,21760.00
2018-07-12T09:32:56.810Z,32032.00
2018-07-12T09:33:56.371Z,30080.00
2018-07-12T09:34:56.555Z,21856.00
2018-07-12T09:35:56.656Z,20864.00
2018-07-12T09:36:56.932Z,23264.00
2018-07-12T09:37:57.171Z,24352.00
2018-07-12T09:38:57.330Z,21312.00
2018-07-12T09:39:57.582Z,21344.00
2018-07-12T09:40:57.874Z,17568.00
2018-07-12T09:41:58.276Z,14492.00
2018-07-12T09:42:58.243Z,12504.00
2018-07-12T09:43:58.024Z,11532.00
2018-07-12T09:44:58.516Z,10192.00
2018-07-12T09:45:58.490Z,9256.00
2018-07-12T09:46:58.988Z,8608.00
2018-07-12T09:47:58.948Z,8244.00
2018-07-12T09:48:59.287Z,8088.00
2018-07-12T09:49:59.596Z,7812.00
2018-07-12T09:50:59.389Z,7676.00
2018-07-12T09:52:00.056Z,7612.00
2018-07-12T09:52:59.958Z,8360.00
2018-07-12T09:54:00.418Z,21088.00
2018-07-12T09:55:00.334Z,14456.00
2018-07-12T09:56:00.694Z,14028.00
2018-07-12T09:57:00.368Z,14044.00
2018-07-12T09:58:00.438Z,15544.00
2018-07-12T09:59:00.823Z,55360.00
2018-07-12T10:00:00.849Z,41984.00
2018-07-12T10:01:01.115Z,19072.00
2018-07-12T10:02:01.150Z,18208.00
2018-07-12T10:03:01.331Z,21792.00
2018-07-12T10:04:01.520Z,20864.00
2018-07-12T10:05:01.698Z,38944.00
2018-07-12T10:06:01.868Z,35968.00
2018-07-12T10:07:02.058Z,35968.00
2018-07-12T10:08:02.220Z,37472.00
2018-07-12T10:09:02.393Z,38240.00
2018-07-12T10:10:02.573Z,22368.00
2018-07-12T10:11:02.750Z,21472.00
2018-07-12T10:12:02.934Z,25920.00
2018-07-12T10:13:03.123Z,24864.00
2018-07-12T10:14:03.290Z,25056.00
2018-07-12T10:15:03.470Z,36288.00
2018-07-12T10:16:03.651Z,20992.00
2018-07-12T10:17:03.829Z,19552.00
2018-07-12T10:18:04.020Z,18848.00
2018-07-12T10:19:04.200Z,18176.00
2018-07-12T10:20:04.375Z,18400.00
2018-07-12T10:21:04.597Z,17760.00
2018-07-12T10:22:04.737Z,14884.00
2018-07-12T10:23:04.929Z,13364.00
2018-07-12T10:24:05.655Z,12264.00
2018-07-12T10:25:05.336Z,11452.00
2018-07-12T10:26:05.525Z,11520.00
2018-07-12T10:27:05.697Z,12496.00
2018-07-12T10:28:05.875Z,12936.00
2018-07-12T10:29:06.049Z,10640.00
2018-07-12T10:30:06.230Z,10256.00
2018-07-12T10:31:06.413Z,12376.00
2018-07-12T10:32:06.602Z,13548.00
2018-07-12T10:33:06.775Z,14328.00
2018-07-12T10:34:06.953Z,17152.00
2018-07-12T10:35:07.130Z,20160.00
2018-07-12T10:36:07.309Z,16864.00
2018-07-12T10:37:07.492Z,12872.00
2018-07-12T10:38:07.671Z,11808.00
2018-07-12T10:40:01.706Z,12656.00
2018-07-12T10:41:01.914Z,14620.00
2018-07-12T10:42:02.264Z,22464.00
2018-07-12T10:43:02.839Z,75360.00
2018-07-12T10:44:02.821Z,21792.00
2018-07-12T10:45:02.531Z,17824.00
2018-07-12T10:46:03.147Z,16348.00
2018-07-12T10:47:03.032Z,15332.00
2018-07-12T10:48:02.565Z,14556.00
2018-07-12T10:49:03.867Z,13568.00
2018-07-12T10:50:03.905Z,13096.00
2018-07-12T10:51:04.383Z,12536.00
2018-07-12T10:52:04.512Z,12568.00
2018-07-12T10:53:04.565Z,13056.00
2018-07-12T10:54:04.391Z,12944.00
2018-07-12T10:55:03.719Z,13772.00
2018-07-12T10:56:03.928Z,18592.00
2018-07-12T10:57:04.102Z,23264.00
2018-07-12T10:58:04.290Z,33984.00
2018-07-12T10:59:04.565Z,45216.00
2018-07-12T11:00:05.422Z,17120.00
2018-07-12T11:01:04.815Z,15368.00
2018-07-12T11:02:04.991Z,15612.00
2018-07-12T11:03:05.173Z,18432.00
2018-07-12T11:04:05.361Z,19168.00
2018-07-12T11:05:05.547Z,18496.00
2018-07-12T11:06:05.720Z,21184.00
2018-07-12T11:07:05.895Z,62880.00
2018-07-12T11:08:06.079Z,98656.00
2018-07-12T11:09:06.272Z,38176.00
2018-07-12T11:10:06.435Z,35392.00
2018-07-12T11:11:06.619Z,16888.00
2018-07-12T11:12:06.797Z,14528.00
2018-07-12T11:13:06.969Z,13924.00
2018-07-12T11:14:07.144Z,13504.00
2018-07-12T11:15:07.527Z,14060.00
2018-07-12T11:16:07.767Z,15232.00
2018-07-12T11:17:07.775Z,15240.00
2018-07-12T11:18:07.959Z,13920.00
2018-07-12T11:19:08.132Z,14856.00
2018-07-12T11:20:08.353Z,14552.00
2018-07-12T11:21:08.535Z,13100.00
2018-07-12T11:22:08.714Z,11832.00
2018-07-12T11:23:08.886Z,12164.00
2018-07-12T11:24:09.060Z,21088.00
2018-07-12T11:25:09.236Z,100352.00
2018-07-12T11:26:09.418Z,26656.00
2018-07-12T11:27:09.596Z,18208.00
2018-07-12T11:28:09.851Z,16768.00
2018-07-12T11:29:09.969Z,14724.00
2018-07-12T11:30:10.170Z,13120.00
2018-07-12T11:31:10.328Z,13180.00
2018-07-12T11:32:10.506Z,14288.00
2018-07-12T11:33:10.690Z,106400.00
2018-07-12T11:34:10.868Z,109248.00
2018-07-12T11:35:11.050Z,36768.00
2018-07-12T11:36:11.241Z,68096.00
2018-07-12T11:37:11.493Z,20512.00
2018-07-12T11:38:11.603Z,18112.00
2018-07-12T11:39:11.777Z,13196.00
2018-07-12T11:40:11.963Z,10232.00
2018-07-12T11:41:12.147Z,8680.00
2018-07-12T11:42:12.325Z,7712.00
2018-07-12T11:43:12.511Z,7172.00
2018-07-12T11:44:12.695Z,7156.00
2018-07-12T11:45:12.880Z,7372.00
2018-07-12T11:46:13.071Z,7348.00
2018-07-12T11:47:13.233Z,6820.00
2018-07-12T11:48:13.430Z,6392.00
2018-07-12T11:49:13.613Z,6320.00
2018-07-12T11:50:14.434Z,6484.00
2018-07-12T11:51:13.959Z,6836.00
2018-07-12T11:52:14.301Z,6956.00
2018-07-12T11:53:14.319Z,6740.00
2018-07-12T11:54:15.430Z,6460.00
2018-07-12T11:55:14.672Z,6220.00
2018-07-12T11:56:14.847Z,6056.00
2018-07-12T11:57:15.026Z,5972.00
2018-07-12T11:58:15.208Z,6092.00
2018-07-12T11:59:15.382Z,6696.00
2018-07-12T12:00:15.564Z,14124.00
2018-07-12T12:01:15.735Z,107296.00
2018-07-12T12:02:15.916Z,107296.00
2018-07-12T12:03:16.093Z,105152.00
2018-07-12T12:04:16.272Z,107008.00
2018-07-12T12:05:16.935Z,109376.00
2018-07-12T12:06:16.624Z,110560.00
2018-07-12T12:07:16.799Z,110112.00
2018-07-12T12:08:16.979Z,109792.00
2018-07-12T12:09:17.166Z,109568.00
2018-07-12T12:10:17.354Z,14160.00
2018-07-12T12:11:17.537Z,10328.00
2018-07-12T12:12:18.134Z,9740.00
2018-07-12T12:13:18.607Z,10880.00
2018-07-12T12:14:18.188Z,15004.00
2018-07-12T12:15:18.297Z,63488.00
2018-07-12T12:16:18.575Z,17440.00
2018-07-12T12:18:10.850Z,14276.00
2018-07-12T12:19:11.035Z,16468.00
2018-07-12T12:20:11.217Z,34624.00
2018-07-12T12:21:11.406Z,106656.00
2018-07-12T12:22:11.722Z,105408.00
2018-07-12T12:23:11.809Z,106752.00